createdAt,value
2023-03-29T00:01:36.078Z,4.28
2023-03-29T00:04:06.362Z,4.63
2023-03-29T00:06:33.598Z,5.03
2023-03-29T00:09:01.594Z,4.78
2023-03-29T00:11:27.991Z,3.83
2023-03-29T00:13:54.416Z,4.65
2023-03-29T00:16:21.114Z,3.72
2023-03-29T00:18:47.524Z,4.38
2023-03-29T00:21:14.121Z,4.35
2023-03-29T00:23:40.704Z,4.20
2023-03-29T00:26:08.216Z,4.50
2023-03-29T00:28:35.367Z,4.60
2023-03-29T00:31:11.276Z,4.57
2023-03-29T00:33:38.865Z,4.53
2023-03-29T00:36:07.100Z,4.53
2023-03-29T00:38:33.784Z,4.03
2023-03-29T00:41:00.640Z,4.70
2023-03-29T00:43:27.441Z,4.03
2023-03-29T00:45:53.863Z,4.55
2023-03-29T00:48:25.714Z,4.20
2023-03-29T00:51:07.054Z,4.25
2023-03-29T00:53:46.775Z,4.20
2023-03-29T00:56:25.126Z,4.65
2023-03-29T00:59:05.312Z,5.20
2023-03-29T01:01:54.650Z,3.85
2023-03-29T01:04:46.540Z,4.10
2023-03-29T01:07:23.117Z,4.15
2023-03-29T01:09:55.249Z,4.13
2023-03-29T01:12:32.667Z,4.07
2023-03-29T01:15:06.368Z,3.90
2023-03-29T01:17:33.017Z,3.65
2023-03-29T01:20:13.749Z,4.15
2023-03-29T01:23:00.746Z,4.75
2023-03-29T01:25:43.679Z,4.07
2023-03-29T01:28:14.614Z,4.18
2023-03-29T01:30:49.860Z,4.50
2023-03-29T01:33:28.388Z,3.92
2023-03-29T01:36:08.094Z,4.40
2023-03-29T01:38:42.785Z,3.53
2023-03-29T01:41:10.829Z,3.78
2023-03-29T01:43:47.070Z,3.90
2023-03-29T01:46:39.820Z,4.45
2023-03-29T01:49:18.661Z,4.32
2023-03-29T01:51:52.061Z,3.80
2023-03-29T01:54:21.998Z,4.53
2023-03-29T01:56:51.212Z,3.83
2023-03-29T01:59:22.508Z,4.60
2023-03-29T02:01:53.576Z,4.55
2023-03-29T02:04:25.401Z,3.72
2023-03-29T02:06:54.585Z,3.92
2023-03-29T02:09:21.946Z,4.05
2023-03-29T02:11:51.431Z,3.75
2023-03-29T02:14:17.805Z,3.53
2023-03-29T02:16:46.119Z,3.53
2023-03-29T02:19:13.511Z,4.15
2023-03-29T02:22:06.942Z,3.50
2023-03-29T02:24:36.501Z,3.63
2023-03-29T02:27:04.399Z,4.00
2023-03-29T02:29:31.137Z,3.72
2023-03-29T02:32:27.296Z,3.90
2023-03-29T02:35:12.951Z,3.63
2023-03-29T02:37:44.159Z,3.75
2023-03-29T02:40:13.912Z,4.97
2023-03-29T02:42:43.962Z,3.70
2023-03-29T02:45:15.153Z,3.60
2023-03-29T02:47:45.783Z,3.53
2023-03-29T02:50:12.798Z,3.40
2023-03-29T02:52:43.081Z,3.78
2023-03-29T02:55:14.939Z,3.97
2023-03-29T02:57:43.459Z,3.53
2023-03-29T03:00:11.717Z,3.45
2023-03-29T03:02:38.265Z,3.50
2023-03-29T03:05:06.342Z,3.40
2023-03-29T03:07:33.678Z,3.58
2023-03-29T03:10:00.160Z,3.42
2023-03-29T03:12:27.544Z,3.28
2023-03-29T03:14:54.542Z,3.45
2023-03-29T03:17:20.965Z,3.80
2023-03-29T03:19:47.459Z,4.45
2023-03-29T03:22:14.855Z,3.45
2023-03-29T03:24:42.568Z,3.33
2023-03-29T03:27:10.993Z,2.90
2023-03-29T03:29:38.564Z,3.47
2023-03-29T03:32:17.381Z,3.15
2023-03-29T03:35:07.624Z,3.47
2023-03-29T03:37:34.058Z,3.50
2023-03-29T03:40:00.537Z,4.10
2023-03-29T03:42:29.519Z,3.53
2023-03-29T03:44:56.475Z,3.95
2023-03-29T03:47:45.909Z,3.50
2023-03-29T03:50:21.703Z,4.15
2023-03-29T03:52:48.089Z,3.60
2023-03-29T03:55:14.537Z,3.63
2023-03-29T03:57:47.836Z,3.95
2023-03-29T04:00:21.063Z,3.78
2023-03-29T04:02:59.639Z,4.07
2023-03-29T04:05:26.296Z,3.80
2023-03-29T04:07:54.156Z,3.42
2023-03-29T04:10:52.941Z,3.88
2023-03-29T04:13:25.700Z,3.63
2023-03-29T04:16:18.001Z,4.05
2023-03-29T04:18:44.583Z,4.25
2023-03-29T04:21:11.111Z,3.90
2023-03-29T04:23:37.579Z,4.15
2023-03-29T04:26:04.904Z,4.53
2023-03-29T04:28:56.327Z,4.35
2023-03-29T04:31:32.214Z,4.10
2023-03-29T04:34:17.382Z,4.03
2023-03-29T04:36:45.718Z,4.53
2023-03-29T04:39:18.741Z,4.13
2023-03-29T04:41:48.444Z,5.03
2023-03-29T04:44:21.878Z,4.88
2023-03-29T04:46:48.665Z,4.80
2023-03-29T04:49:34.002Z,5.10
2023-03-29T04:52:00.895Z,4.88
2023-03-29T04:54:29.808Z,5.03
2023-03-29T04:57:22.180Z,4.88
2023-03-29T05:00:14.678Z,4.13
2023-03-29T05:02:59.730Z,4.78
2023-03-29T05:05:28.715Z,4.97
2023-03-29T05:07:57.059Z,4.15
2023-03-29T05:10:29.720Z,5.07
2023-03-29T05:12:56.849Z,5.13
2023-03-29T05:15:23.302Z,4.75
2023-03-29T05:17:49.999Z,5.32
2023-03-29T05:20:18.228Z,5.30
2023-03-29T05:22:53.532Z,4.93
2023-03-29T05:25:40.491Z,4.97
2023-03-29T05:28:06.986Z,5.40
2023-03-29T05:30:33.837Z,5.95
2023-03-29T05:33:09.253Z,5.18
2023-03-29T05:35:36.290Z,5.35
2023-03-29T05:38:06.366Z,6.30
2023-03-29T05:40:33.790Z,6.28
2023-03-29T05:43:12.220Z,6.30
2023-03-29T05:45:38.904Z,6.07
2023-03-29T05:48:05.808Z,5.68
2023-03-29T05:50:33.129Z,5.80
2023-03-29T05:52:59.901Z,6.07
2023-03-29T05:55:26.342Z,5.85
2023-03-29T05:57:52.792Z,6.35
2023-03-29T06:00:23.722Z,7.35
2023-03-29T06:03:06.414Z,6.47
2023-03-29T06:05:36.826Z,6.38
2023-03-29T06:08:05.157Z,6.72
2023-03-29T06:11:02.469Z,7.22
2023-03-29T06:13:51.693Z,7.18
2023-03-29T06:16:18.182Z,6.82
2023-03-29T06:18:44.788Z,6.97
2023-03-29T06:21:11.250Z,7.53
2023-03-29T06:23:38.011Z,8.00
2023-03-29T06:26:05.733Z,7.00
2023-03-29T06:28:32.270Z,7.55
2023-03-29T06:31:03.075Z,7.20
2023-03-29T06:33:37.180Z,6.78
2023-03-29T06:36:22.285Z,7.68
2023-03-29T06:38:49.072Z,7.32
2023-03-29T06:41:26.466Z,8.13
2023-03-29T06:44:13.016Z,7.80
2023-03-29T06:46:53.254Z,7.35
2023-03-29T06:49:20.651Z,7.78
2023-03-29T06:52:16.222Z,7.25
2023-03-29T06:54:44.777Z,7.68
2023-03-29T06:57:13.315Z,6.55
2023-03-29T06:59:39.842Z,7.78
2023-03-29T07:02:33.922Z,7.35
2023-03-29T07:05:11.792Z,6.88
2023-03-29T07:07:59.683Z,7.25
2023-03-29T07:10:39.378Z,7.07
2023-03-29T07:13:26.150Z,7.30
2023-03-29T07:15:53.449Z,7.63
2023-03-29T07:18:24.647Z,8.48
2023-03-29T07:20:52.117Z,7.63
2023-03-29T07:23:18.615Z,6.72
2023-03-29T07:25:46.906Z,7.00
2023-03-29T07:28:13.544Z,7.28
2023-03-29T07:30:39.957Z,7.45
2023-03-29T07:33:12.199Z,6.80
2023-03-29T07:35:47.687Z,6.40
2023-03-29T07:38:15.467Z,6.68
2023-03-29T07:40:46.969Z,6.63
2023-03-29T07:43:32.372Z,6.85
2023-03-29T07:46:04.809Z,6.35
2023-03-29T07:48:33.587Z,7.00
2023-03-29T07:51:05.063Z,6.50
2023-03-29T07:53:42.739Z,7.22
2023-03-29T07:56:32.395Z,6.43
2023-03-29T07:59:10.877Z,6.38
2023-03-29T08:01:40.835Z,6.43
2023-03-29T08:04:16.746Z,6.20
2023-03-29T08:07:01.993Z,6.22
2023-03-29T08:09:46.605Z,7.68
2023-03-29T08:12:13.110Z,6.43
2023-03-29T08:14:39.509Z,6.40
2023-03-29T08:17:13.064Z,6.47
2023-03-29T08:19:50.731Z,6.32
2023-03-29T08:22:20.919Z,6.50
2023-03-29T08:25:05.520Z,6.95
2023-03-29T08:27:37.571Z,6.25
2023-03-29T08:30:06.529Z,6.18
2023-03-29T08:32:36.744Z,7.00
2023-03-29T08:35:05.300Z,6.20
2023-03-29T08:37:37.859Z,6.35
2023-03-29T08:40:06.096Z,6.38
2023-03-29T08:42:56.691Z,5.68
2023-03-29T08:45:32.511Z,6.45
2023-03-29T08:48:25.420Z,6.05
2023-03-29T08:50:57.146Z,5.13
2023-03-29T08:53:41.358Z,5.80
2023-03-29T08:56:27.328Z,6.28
2023-03-29T08:59:28.733Z,5.97
2023-03-29T09:01:57.820Z,6.20
2023-03-29T09:04:28.448Z,5.97
2023-03-29T09:07:09.272Z,5.95
2023-03-29T09:09:42.169Z,6.50
2023-03-29T09:12:34.644Z,6.10
2023-03-29T09:15:15.205Z,5.97
2023-03-29T09:17:52.900Z,6.00
2023-03-29T09:20:30.055Z,6.05
2023-03-29T09:23:24.711Z,5.25
2023-03-29T09:26:19.478Z,5.00
2023-03-29T09:29:20.400Z,5.60
2023-03-29T09:31:48.390Z,5.57
2023-03-29T09:34:42.710Z,5.90
2023-03-29T09:37:25.673Z,5.30
2023-03-29T09:39:53.132Z,5.32
2023-03-29T09:42:23.822Z,4.90
2023-03-29T09:44:53.991Z,5.82
2023-03-29T09:47:37.426Z,5.82
2023-03-29T09:50:30.874Z,5.20
2023-03-29T09:53:01.108Z,5.63
2023-03-29T09:55:32.287Z,5.90
2023-03-29T09:58:14.763Z,5.32
2023-03-29T10:00:46.341Z,5.57
2023-03-29T10:03:24.686Z,5.35
2023-03-29T10:06:03.569Z,5.40
2023-03-29T10:08:40.716Z,5.00
2023-03-29T10:11:29.986Z,5.20
2023-03-29T10:14:01.919Z,5.80
2023-03-29T10:16:33.243Z,5.75
2023-03-29T10:19:27.022Z,5.72
2023-03-29T10:21:55.686Z,6.22
2023-03-29T10:24:23.547Z,6.10
2023-03-29T10:26:55.788Z,5.18
2023-03-29T10:29:24.696Z,5.43
2023-03-29T10:31:51.925Z,6.07
2023-03-29T10:34:18.834Z,5.63
2023-03-29T10:36:59.031Z,5.38
2023-03-29T10:39:30.062Z,6.15
2023-03-29T10:41:59.626Z,6.07
2023-03-29T10:44:33.272Z,5.85
2023-03-29T10:47:17.485Z,5.95
2023-03-29T10:49:47.806Z,5.88
2023-03-29T10:52:16.332Z,6.47
2023-03-29T10:54:43.524Z,5.75
2023-03-29T10:57:15.789Z,6.47
2023-03-29T11:00:02.146Z,6.50
2023-03-29T11:02:47.680Z,6.40
2023-03-29T11:05:26.379Z,6.75
2023-03-29T11:08:15.256Z,5.78
2023-03-29T11:10:58.958Z,6.80
2023-03-29T11:13:50.625Z,6.72
2023-03-29T11:16:29.891Z,6.93
2023-03-29T11:19:23.958Z,6.68
2023-03-29T11:22:08.620Z,6.68
2023-03-29T11:25:08.054Z,5.63
2023-03-29T11:27:51.000Z,7.43
2023-03-29T11:30:35.110Z,7.53
2023-03-29T11:33:20.795Z,6.70
2023-03-29T11:36:20.699Z,7.00
2023-03-29T11:39:05.669Z,7.53
2023-03-29T11:41:35.039Z,7.30
2023-03-29T11:44:14.715Z,7.57
2023-03-29T11:46:46.779Z,7.35
2023-03-29T11:49:26.538Z,6.88
2023-03-29T11:52:06.244Z,7.22
2023-03-29T11:54:45.376Z,7.25
2023-03-29T11:57:22.379Z,7.72
2023-03-29T12:00:02.171Z,7.43
2023-03-29T12:02:49.847Z,7.22
2023-03-29T12:05:30.846Z,8.10
2023-03-29T12:08:04.999Z,8.45
2023-03-29T12:10:40.453Z,7.93
2023-03-29T12:13:16.516Z,8.40
2023-03-29T12:15:48.141Z,8.63
2023-03-29T12:18:39.350Z,7.57
2023-03-29T12:21:12.165Z,9.05
2023-03-29T12:23:43.173Z,9.10
2023-03-29T12:26:36.299Z,9.02
2023-03-29T12:29:35.216Z,8.30
2023-03-29T12:32:31.966Z,8.35
2023-03-29T12:36:02.176Z,7.85
2023-03-29T12:38:51.723Z,8.50
2023-03-29T12:41:38.179Z,7.53
2023-03-29T12:44:32.957Z,8.82
2023-03-29T12:47:25.241Z,8.85
2023-03-29T12:49:56.025Z,8.68
2023-03-29T12:52:34.087Z,7.82
2023-03-29T12:55:20.854Z,8.30
2023-03-29T12:58:20.758Z,8.43
2023-03-29T13:00:47.972Z,8.20
2023-03-29T13:03:39.194Z,7.88
2023-03-29T13:06:10.779Z,8.32
2023-03-29T13:08:42.502Z,9.00
2023-03-29T13:11:25.226Z,8.85
2023-03-29T13:13:52.304Z,8.80
2023-03-29T13:16:28.643Z,8.43
2023-03-29T13:19:19.967Z,8.98
2023-03-29T13:22:15.713Z,8.40
2023-03-29T13:24:47.861Z,7.85
2023-03-29T13:27:26.170Z,8.65
2023-03-29T13:29:55.489Z,8.00
2023-03-29T13:32:31.956Z,7.95
2023-03-29T13:35:12.587Z,7.57
2023-03-29T13:37:57.853Z,8.05
2023-03-29T13:40:30.118Z,8.15
2023-03-29T13:43:08.642Z,7.88
2023-03-29T13:45:35.955Z,8.50
2023-03-29T13:48:27.085Z,8.57
2023-03-29T13:51:00.901Z,8.38
2023-03-29T13:53:39.283Z,8.45
2023-03-29T13:56:10.918Z,7.82
2023-03-29T13:58:48.222Z,7.80
2023-03-29T14:01:31.890Z,7.55
2023-03-29T14:03:59.253Z,8.13
2023-03-29T14:06:30.433Z,8.40
2023-03-29T14:08:56.836Z,8.63
2023-03-29T14:11:26.519Z,7.82
2023-03-29T14:13:55.707Z,7.25
2023-03-29T14:16:26.115Z,8.10
2023-03-29T14:18:52.887Z,7.88
2023-03-29T14:21:20.929Z,8.15
2023-03-29T14:23:54.161Z,7.95
2023-03-29T14:26:23.895Z,8.15
2023-03-29T14:28:56.578Z,7.68
2023-03-29T14:31:31.272Z,8.63
2023-03-29T14:34:02.770Z,7.80
2023-03-29T14:36:32.236Z,7.20
2023-03-29T14:39:06.029Z,7.63
2023-03-29T14:41:35.535Z,8.63
2023-03-29T14:44:03.222Z,7.88
2023-03-29T14:46:29.933Z,8.32
2023-03-29T14:48:57.148Z,8.60
2023-03-29T14:51:30.180Z,8.15
2023-03-29T14:54:02.830Z,8.70
2023-03-29T14:56:32.454Z,9.45
2023-03-29T14:59:02.132Z,8.55
2023-03-29T15:01:28.576Z,9.23
2023-03-29T15:04:03.132Z,8.73
2023-03-29T15:06:39.928Z,8.75
2023-03-29T15:09:07.098Z,8.88
2023-03-29T15:11:34.960Z,8.68
2023-03-29T15:14:04.967Z,9.23
2023-03-29T15:16:31.853Z,9.80
2023-03-29T15:19:01.393Z,8.88
2023-03-29T15:21:32.948Z,9.38
2023-03-29T15:24:03.635Z,10.00
2023-03-29T15:26:33.626Z,10.90
2023-03-29T15:29:09.198Z,8.95
2023-03-29T15:31:38.366Z,10.10
2023-03-29T15:34:10.798Z,10.10
2023-03-29T15:36:45.080Z,9.52
2023-03-29T15:39:13.651Z,9.77
2023-03-29T15:41:41.291Z,10.80
2023-03-29T15:44:07.706Z,10.73
2023-03-29T15:46:34.107Z,10.45
2023-03-29T15:49:00.668Z,10.52
2023-03-29T15:51:27.389Z,10.35
2023-03-29T15:53:53.742Z,10.77
2023-03-29T15:56:24.345Z,10.18
2023-03-29T15:58:50.831Z,10.25
2023-03-29T16:01:35.010Z,10.55
2023-03-29T16:04:06.752Z,10.55
2023-03-29T16:06:34.252Z,9.73
2023-03-29T16:09:00.989Z,9.70
2023-03-29T16:11:28.232Z,10.15
2023-03-29T16:13:55.661Z,10.05
2023-03-29T16:16:22.411Z,10.15
2023-03-29T16:18:48.885Z,10.27
2023-03-29T16:21:18.090Z,10.52
2023-03-29T16:23:47.714Z,10.15
2023-03-29T16:26:16.560Z,10.25
2023-03-29T16:28:43.428Z,11.18
2023-03-29T16:31:11.790Z,10.52
2023-03-29T16:33:38.877Z,9.90
2023-03-29T16:36:06.315Z,10.23
2023-03-29T16:38:33.665Z,10.00
2023-03-29T16:41:00.611Z,10.75
2023-03-29T16:43:27.747Z,11.77
2023-03-29T16:45:56.913Z,11.85
2023-03-29T16:48:23.719Z,11.32
2023-03-29T16:50:50.630Z,11.93
2023-03-29T16:53:18.494Z,12.23
2023-03-29T16:55:46.034Z,13.13
2023-03-29T16:58:12.389Z,11.25
2023-03-29T17:00:40.840Z,12.32
2023-03-29T17:03:07.922Z,12.20
2023-03-29T17:05:39.797Z,13.02
2023-03-29T17:08:06.672Z,11.77
2023-03-29T17:10:33.146Z,11.48
2023-03-29T17:12:59.515Z,11.82
2023-03-29T17:15:25.914Z,11.55
2023-03-29T17:17:52.375Z,11.52
2023-03-29T17:20:19.005Z,11.45
2023-03-29T17:22:45.570Z,10.07
2023-03-29T17:25:11.932Z,11.88
2023-03-29T17:27:38.332Z,11.18
2023-03-29T17:30:06.296Z,10.82
2023-03-29T17:32:32.813Z,11.70
2023-03-29T17:34:59.465Z,11.18
2023-03-29T17:37:27.700Z,11.02
2023-03-29T17:39:54.672Z,11.50
2023-03-29T17:42:21.073Z,11.38
2023-03-29T17:44:47.420Z,11.27
2023-03-29T17:47:13.801Z,11.02
2023-03-29T17:49:40.475Z,10.82
2023-03-29T17:52:06.867Z,11.82
2023-03-29T17:54:33.277Z,12.50
2023-03-29T17:56:59.689Z,11.60
2023-03-29T17:59:26.082Z,11.93
2023-03-29T18:01:52.515Z,11.80
2023-03-29T18:04:18.949Z,12.57
2023-03-29T18:06:45.700Z,12.30
2023-03-29T18:09:12.976Z,12.25
2023-03-29T18:11:39.335Z,12.32
2023-03-29T18:14:05.892Z,12.88
2023-03-29T18:16:32.437Z,13.88
2023-03-29T18:18:58.875Z,12.65
2023-03-29T18:21:26.202Z,12.30
2023-03-29T18:23:55.556Z,12.18
2023-03-29T18:26:23.367Z,12.23
2023-03-29T18:28:50.694Z,12.65
2023-03-29T18:31:17.300Z,13.10
2023-03-29T18:33:43.688Z,14.35
2023-03-29T18:36:13.241Z,12.60
2023-03-29T18:38:42.917Z,12.95
2023-03-29T18:41:11.995Z,12.63
2023-03-29T18:43:39.697Z,12.15
2023-03-29T18:46:07.728Z,12.48
2023-03-29T18:48:38.622Z,13.13
2023-03-29T18:51:10.859Z,13.68
2023-03-29T18:53:38.767Z,12.95
2023-03-29T18:56:06.440Z,13.13
2023-03-29T18:58:32.973Z,12.93
2023-03-29T19:01:04.196Z,13.23
2023-03-29T19:03:34.744Z,13.38
2023-03-29T19:06:02.985Z,13.73
2023-03-29T19:08:29.640Z,13.65
2023-03-29T19:11:05.783Z,13.02
2023-03-29T19:13:33.593Z,13.32
2023-03-29T19:16:00.403Z,13.48
2023-03-29T19:18:27.561Z,13.35
2023-03-29T19:20:54.297Z,13.80
2023-03-29T19:23:27.074Z,14.68
2023-03-29T19:26:02.684Z,13.90
2023-03-29T19:28:29.730Z,12.80
2023-03-29T19:30:58.601Z,15.25
2023-03-29T19:33:25.585Z,15.45
2023-03-29T19:35:52.356Z,14.57
2023-03-29T19:38:20.063Z,15.15
2023-03-29T19:40:48.687Z,14.27
2023-03-29T19:43:16.575Z,15.27
2023-03-29T19:45:47.242Z,14.88
2023-03-29T19:48:21.900Z,14.73
2023-03-29T19:50:49.385Z,16.33
2023-03-29T19:53:15.849Z,15.63
2023-03-29T19:55:44.120Z,15.18
2023-03-29T19:58:10.540Z,15.18
2023-03-29T20:00:38.625Z,15.23
2023-03-29T20:03:05.493Z,14.85
2023-03-29T20:05:32.443Z,16.42
2023-03-29T20:07:58.803Z,16.13
2023-03-29T20:10:25.352Z,15.75
2023-03-29T20:12:51.812Z,15.90
2023-03-29T20:15:18.984Z,16.10
2023-03-29T20:17:59.474Z,15.35
2023-03-29T20:20:33.104Z,15.23
2023-03-29T20:23:04.600Z,15.05
2023-03-29T20:25:32.292Z,16.25
2023-03-29T20:27:59.560Z,15.68
2023-03-29T20:30:26.282Z,14.73
2023-03-29T20:32:52.710Z,16.52
2023-03-29T20:35:19.144Z,14.70
2023-03-29T20:37:45.695Z,15.95
2023-03-29T20:40:12.855Z,15.90
2023-03-29T20:42:39.320Z,15.32
2023-03-29T20:45:07.718Z,15.40
2023-03-29T20:47:42.155Z,15.20
2023-03-29T20:50:10.375Z,14.60
2023-03-29T20:52:36.768Z,14.48
2023-03-29T20:55:03.527Z,14.73
2023-03-29T20:57:30.643Z,14.77
2023-03-29T20:59:57.120Z,14.40
2023-03-29T21:02:23.597Z,15.25
2023-03-29T21:04:53.658Z,14.73
2023-03-29T21:07:21.559Z,15.63
2023-03-29T21:09:49.781Z,14.77
2023-03-29T21:12:16.693Z,14.60
2023-03-29T21:14:43.471Z,15.07
2023-03-29T21:17:14.251Z,15.00
2023-03-29T21:19:41.205Z,15.45
2023-03-29T21:22:07.537Z,14.07
2023-03-29T21:24:36.273Z,14.00
2023-03-29T21:27:02.682Z,14.07
2023-03-29T21:29:29.147Z,14.20
2023-03-29T21:31:55.775Z,15.43
2023-03-29T21:34:22.577Z,14.98
2023-03-29T21:36:49.512Z,15.20
2023-03-29T21:39:16.010Z,16.30
2023-03-29T21:41:42.400Z,15.23
2023-03-29T21:44:08.979Z,15.30
2023-03-29T21:46:35.501Z,13.85
2023-03-29T21:49:01.892Z,15.23
2023-03-29T21:51:28.334Z,15.95
2023-03-29T21:53:54.702Z,14.95
2023-03-29T21:56:22.373Z,15.95
2023-03-29T21:58:48.840Z,15.77
2023-03-29T22:01:18.984Z,15.07
2023-03-29T22:03:46.592Z,15.57
2023-03-29T22:06:14.318Z,15.43
2023-03-29T22:08:40.735Z,16.33
2023-03-29T22:11:14.111Z,15.25
2023-03-29T22:13:41.461Z,14.77
2023-03-29T22:16:08.554Z,15.60
2023-03-29T22:18:43.510Z,14.65
2023-03-29T22:21:13.832Z,16.83
2023-03-29T22:23:42.407Z,15.60
2023-03-29T22:26:11.302Z,15.63
2023-03-29T22:28:38.603Z,15.55
2023-03-29T22:31:10.996Z,16.55
2023-03-29T22:33:38.083Z,16.25
2023-03-29T22:36:13.563Z,17.42
2023-03-29T22:38:39.953Z,17.40
2023-03-29T22:41:06.597Z,16.60
2023-03-29T22:43:33.028Z,18.08
2023-03-29T22:45:59.454Z,17.42
2023-03-29T22:48:25.889Z,17.98
2023-03-29T22:50:52.415Z,18.58
2023-03-29T22:53:18.830Z,19.55
2023-03-29T22:55:46.126Z,19.90
2023-03-29T22:58:12.566Z,19.73
2023-03-29T23:00:38.972Z,19.63
2023-03-29T23:03:06.450Z,20.00
2023-03-29T23:05:43.301Z,18.60
2023-03-29T23:08:09.887Z,20.27
2023-03-29T23:10:36.402Z,19.85
2023-03-29T23:13:09.023Z,19.70
2023-03-29T23:15:37.155Z,18.48
2023-03-29T23:18:04.572Z,19.55
2023-03-29T23:20:32.380Z,18.52
2023-03-29T23:22:59.324Z,17.40
2023-03-29T23:25:26.422Z,18.25
2023-03-29T23:27:53.918Z,17.45
2023-03-29T23:30:21.619Z,18.35
2023-03-29T23:32:49.275Z,17.67
2023-03-29T23:35:16.513Z,18.75
2023-03-29T23:37:43.346Z,19.13
2023-03-29T23:40:15.405Z,18.95
2023-03-29T23:42:44.382Z,19.05
2023-03-29T23:45:13.539Z,19.20
2023-03-29T23:47:40.991Z,18.00
2023-03-29T23:50:09.379Z,19.38
2023-03-29T23:52:37.048Z,19.02
2023-03-29T23:55:04.643Z,18.63
2023-03-29T23:57:33.957Z,17.80
